Time;durP1;ratioP1;P1;durP2;ratioP2;P2;SDS_P1;SDS_P2;PMS_P1;PMS_P2;Temp;Humidity;BMP_temperature;BMP_pressure;BME280_temperature;BME280_humidity;BME280_pressure;Samples;Min_cycle;Max_cycle;Signal;HPM_P1;HPM_P2
2021/05/24 00:01:02;;;;;;;6.72;3.95;;;5.90;99.90;;;;;;5031791;28;20076;-71
2021/05/24 00:03:29;;;;;;;4.88;3.70;;;6.00;99.90;;;;;;5046273;28;20062;-70
2021/05/24 00:05:56;;;;;;;6.15;3.63;;;6.00;99.90;;;;;;5061296;28;20053;-70
2021/05/24 00:08:23;;;;;;;5.50;3.70;;;5.80;99.90;;;;;;5042961;28;20454;-70
2021/05/24 00:10:49;;;;;;;6.13;3.75;;;5.80;99.90;;;;;;5033831;28;20147;-71
2021/05/24 00:13:19;;;;;;;6.78;3.75;;;5.80;99.90;;;;;;5047837;28;20450;-69
2021/05/24 00:15:49;;;;;;;5.95;3.53;;;5.90;99.90;;;;;;5043244;28;20036;-71
2021/05/24 00:18:17;;;;;;;7.07;3.70;;;5.90;99.90;;;;;;5026852;28;20049;-70
2021/05/24 00:20:50;;;;;;;5.03;4.30;;;5.80;99.90;;;;;;5013959;28;20044;-69
2021/05/24 00:23:18;;;;;;;4.82;3.58;;;5.80;99.90;;;;;;5055830;28;20298;-70
2021/05/24 00:25:45;;;;;;;3.65;3.35;;;5.80;99.90;;;;;;5032890;28;20041;-69
2021/05/24 00:28:14;;;;;;;3.47;3.15;;;5.80;99.90;;;;;;5037820;28;20581;-70
2021/05/24 00:30:42;;;;;;;4.55;3.53;;;5.80;99.90;;;;;;5062665;28;20538;-71
2021/05/24 00:33:09;;;;;;;6.40;3.35;;;6.00;99.90;;;;;;5082132;28;20056;-69
2021/05/24 00:35:36;;;;;;;3.88;3.50;;;6.10;99.90;;;;;;5042210;28;20088;-70
2021/05/24 00:38:05;;;;;;;4.90;3.58;;;6.20;99.90;;;;;;5061866;28;20101;-70
2021/05/24 00:40:33;;;;;;;7.28;4.03;;;6.30;99.90;;;;;;5047007;28;20048;-70
2021/05/24 00:43:02;;;;;;;7.15;4.38;;;6.20;99.90;;;;;;5059211;28;20110;-70
2021/05/24 00:45:29;;;;;;;7.10;4.30;;;6.20;99.90;;;;;;5051300;28;20056;-70
2021/05/24 00:47:56;;;;;;;4.55;3.88;;;6.00;99.90;;;;;;5058240;28;20048;-69
2021/05/24 00:50:23;;;;;;;5.95;4.05;;;6.00;99.90;;;;;;5026597;28;20055;-69
2021/05/24 00:52:50;;;;;;;4.93;4.05;;;5.90;99.90;;;;;;5057913;28;20663;-69
2021/05/24 00:55:16;;;;;;;5.88;3.95;;;6.00;99.90;;;;;;5062507;28;20044;-71
2021/05/24 00:57:44;;;;;;;4.18;3.63;;;6.00;99.90;;;;;;5038726;28;20044;-70
2021/05/24 01:00:41;;;;;;;4.63;4.20;;;5.90;99.90;;;;;;5061942;28;20583;-70
2021/05/24 01:03:10;;;;;;;5.72;4.15;;;5.80;99.90;;;;;;5044492;28;20468;-70
2021/05/24 01:05:38;;;;;;;5.07;3.97;;;5.70;99.90;;;;;;5053311;28;20041;-71
2021/05/24 01:08:06;;;;;;;8.57;4.22;;;5.60;99.90;;;;;;5041181;28;20049;-71
2021/05/24 01:10:33;;;;;;;5.55;3.65;;;5.60;99.90;;;;;;5018220;28;20045;-70
2021/05/24 01:13:01;;;;;;;5.20;3.90;;;5.70;99.90;;;;;;5058769;28;20043;-69
2021/05/24 01:15:28;;;;;;;5.30;4.43;;;5.70;99.90;;;;;;5036871;28;20536;-70
2021/05/24 01:17:55;;;;;;;4.32;3.88;;;5.70;99.90;;;;;;5050762;28;20056;-71
2021/05/24 01:20:27;;;;;;;4.97;3.97;;;5.70;99.90;;;;;;5041533;28;20041;-70
2021/05/24 01:22:59;;;;;;;6.85;3.75;;;5.60;99.90;;;;;;5040567;28;20063;-70
2021/05/24 01:25:25;;;;;;;3.80;3.50;;;5.60;99.90;;;;;;5023987;28;20297;-70
2021/05/24 01:27:53;;;;;;;6.00;3.28;;;5.50;99.90;;;;;;5051124;28;20044;-70
2021/05/24 01:30:20;;;;;;;6.50;4.30;;;5.50;99.90;;;;;;5060072;28;20041;-71
2021/05/24 01:32:49;;;;;;;5.85;3.20;;;5.50;99.90;;;;;;5028155;28;20053;-70
2021/05/24 01:35:16;;;;;;;3.83;2.95;;;5.50;99.90;;;;;;5072714;28;20183;-70
2021/05/24 01:37:43;;;;;;;4.07;3.13;;;5.50;99.90;;;;;;5051087;28;20052;-70
2021/05/24 01:40:11;;;;;;;4.93;3.65;;;5.50;99.90;;;;;;5059438;28;20094;-70
2021/05/24 01:42:37;;;;;;;4.10;2.97;;;5.60;99.90;;;;;;5055777;28;20110;-70
2021/05/24 01:45:05;;;;;;;6.43;3.22;;;5.70;99.90;;;;;;5069598;28;20051;-70
2021/05/24 01:47:32;;;;;;;4.32;3.00;;;5.80;99.90;;;;;;5060465;28;20056;-70
2021/05/24 01:49:59;;;;;;;3.38;2.67;;;6.00;99.90;;;;;;5042340;28;20040;-69
2021/05/24 01:52:26;;;;;;;4.53;2.97;;;6.30;99.90;;;;;;5059751;28;20118;-69
2021/05/24 01:54:53;;;;;;;3.17;2.85;;;6.50;99.90;;;;;;5056365;28;20044;-71
2021/05/24 01:57:20;;;;;;;5.97;3.63;;;6.60;99.90;;;;;;5062718;28;20048;-69
2021/05/24 01:59:47;;;;;;;3.15;2.90;;;6.70;99.90;;;;;;5080989;28;20044;-70
2021/05/24 02:02:16;;;;;;;4.97;3.20;;;6.90;99.90;;;;;;5045844;28;20589;-71
2021/05/24 02:04:42;;;;;;;6.03;3.58;;;6.80;99.90;;;;;;5043474;28;20059;-70
2021/05/24 02:07:09;;;;;;;4.78;3.70;;;7.00;99.90;;;;;;5061560;28;20060;-71
2021/05/24 02:09:39;;;;;;;6.57;4.00;;;7.00;99.90;;;;;;5054089;28;20552;-71
2021/05/24 02:12:06;;;;;;;5.35;3.35;;;6.90;99.90;;;;;;5023145;28;20052;-70
2021/05/24 02:14:33;;;;;;;5.47;3.92;;;6.90;99.90;;;;;;5051514;28;20055;-70
2021/05/24 02:16:59;;;;;;;4.45;3.67;;;7.10;99.90;;;;;;5025071;28;20514;-71
2021/05/24 02:19:26;;;;;;;10.52;3.60;;;7.10;99.90;;;;;;5024921;28;20514;-70
2021/05/24 02:21:53;;;;;;;7.10;3.38;;;7.30;99.90;;;;;;5041171;28;20040;-70
2021/05/24 02:24:20;;;;;;;4.40;3.78;;;7.50;99.90;;;;;;5026106;28;20639;-71
2021/05/24 02:26:47;;;;;;;4.72;3.33;;;7.60;99.90;;;;;;5077907;28;20101;-69
2021/05/24 02:29:13;;;;;;;7.28;4.50;;;7.80;99.90;;;;;;5080041;28;20052;-70
2021/05/24 02:31:40;;;;;;;4.72;4.25;;;7.90;99.90;;;;;;5061142;28;20044;-69
2021/05/24 02:34:07;;;;;;;4.10;3.80;;;8.00;99.90;;;;;;5036143;28;20136;-70
2021/05/24 02:36:35;;;;;;;6.07;4.63;;;8.10;99.90;;;;;;5054978;28;20137;-70
2021/05/24 02:39:08;;;;;;;4.82;3.83;;;8.00;99.90;;;;;;5075790;28;20143;-68
2021/05/24 02:41:36;;;;;;;4.45;4.15;;;8.00;99.90;;;;;;5048412;28;20044;-69
2021/05/24 02:44:04;;;;;;;6.95;4.65;;;8.00;99.90;;;;;;5024341;28;20317;-70
2021/05/24 02:46:32;;;;;;;5.50;4.28;;;8.00;99.90;;;;;;5029386;28;20668;-70
2021/05/24 02:48:59;;;;;;;6.60;4.38;;;8.00;99.90;;;;;;5069577;28;20048;-70
2021/05/24 02:51:26;;;;;;;4.95;4.50;;;7.90;99.90;;;;;;5059074;28;20716;-70
2021/05/24 02:53:52;;;;;;;5.75;4.15;;;8.00;99.90;;;;;;5028595;28;20052;-69
2021/05/24 02:56:19;;;;;;;4.65;4.20;;;7.90;99.90;;;;;;5062049;28;20098;-69
2021/05/24 02:58:46;;;;;;;5.78;3.85;;;7.90;99.90;;;;;;5038379;28;20052;-69
2021/05/24 03:01:13;;;;;;;4.50;4.13;;;7.90;99.90;;;;;;5044710;28;20456;-69
2021/05/24 03:03:41;;;;;;;6.15;4.43;;;7.90;99.90;;;;;;5070445;28;20052;-70
2021/05/24 03:06:08;;;;;;;8.18;4.18;;;7.90;99.90;;;;;;5050171;28;20504;-70
2021/05/24 03:08:35;;;;;;;4.70;4.20;;;7.90;99.90;;;;;;5051567;28;20052;-70
2021/05/24 03:11:02;;;;;;;5.35;3.92;;;7.80;99.90;;;;;;5064838;28;20410;-70
2021/05/24 03:13:29;;;;;;;6.40;4.22;;;7.80;99.90;;;;;;5017014;28;20139;-70
2021/05/24 03:15:56;;;;;;;4.47;4.05;;;7.90;99.90;;;;;;5027198;28;20056;-69
2021/05/24 03:18:23;;;;;;;5.47;3.80;;;7.90;99.90;;;;;;5045900;28;20036;-70
2021/05/24 03:20:50;;;;;;;5.72;3.85;;;7.90;99.90;;;;;;5062823;28;20044;-70
2021/05/24 03:23:17;;;;;;;4.80;3.92;;;7.90;99.90;;;;;;5035155;28;20095;-70
2021/05/24 03:25:44;;;;;;;8.15;4.63;;;7.90;99.90;;;;;;5055317;28;20102;-69
2021/05/24 03:28:14;;;;;;;4.60;4.20;;;7.90;99.90;;;;;;5058741;28;20065;-70
2021/05/24 03:30:41;;;;;;;5.20;4.50;;;7.80;99.90;;;;;;5082924;22;20052;-73
2021/05/24 03:33:07;;;;;;;4.95;4.30;;;7.90;99.90;;;;;;5020125;28;20065;-74
2021/05/24 03:35:34;;;;;;;5.78;4.20;;;7.80;99.90;;;;;;5041324;28;20053;-73
2021/05/24 03:38:01;;;;;;;4.63;4.22;;;7.90;99.90;;;;;;5019797;28;20042;-73
2021/05/24 03:40:28;;;;;;;5.88;4.65;;;7.80;99.90;;;;;;5019798;28;20527;-73
2021/05/24 03:42:55;;;;;;;5.47;4.97;;;7.80;99.90;;;;;;5018181;28;20172;-73
2021/05/24 03:45:23;;;;;;;6.68;4.88;;;7.70;99.90;;;;;;5042051;28;20057;-73
2021/05/24 03:47:50;;;;;;;5.32;4.60;;;7.50;99.90;;;;;;5025817;28;20107;-76
2021/05/24 03:50:18;;;;;;;5.15;4.57;;;7.30;99.90;;;;;;5030716;28;20214;-73
2021/05/24 03:52:46;;;;;;;4.63;4.03;;;7.40;99.90;;;;;;5021938;28;20123;-73
2021/05/24 03:55:14;;;;;;;6.95;4.13;;;7.30;99.90;;;;;;5021507;28;20061;-73
2021/05/24 03:57:41;;;;;;;4.70;4.32;;;7.30;99.90;;;;;;5029308;28;20049;-73
2021/05/24 04:00:10;;;;;;;5.78;3.70;;;7.30;99.90;;;;;;5005725;28;20045;-73
2021/05/24 04:02:40;;;;;;;5.97;3.70;;;7.30;99.90;;;;;;5040571;28;20083;-73
2021/05/24 04:05:16;;;;;;;4.75;4.28;;;7.20;99.90;;;;;;5042765;28;20413;-73
2021/05/24 04:07:49;;;;;;;5.15;3.97;;;7.30;99.90;;;;;;5022391;28;20041;-73
2021/05/24 04:10:17;;;;;;;4.78;4.13;;;7.40;99.90;;;;;;5040626;28;20111;-73
2021/05/24 04:12:44;;;;;;;6.53;4.30;;;7.50;99.90;;;;;;5025350;28;20667;-73
2021/05/24 04:15:14;;;;;;;5.85;3.75;;;7.50;99.90;;;;;;5041313;28;20061;-72
2021/05/24 04:17:42;;;;;;;4.57;4.10;;;7.50;99.90;;;;;;5025160;28;20052;-73
2021/05/24 04:20:11;;;;;;;5.60;4.60;;;7.60;99.90;;;;;;5022668;28;20045;-73
2021/05/24 04:22:39;;;;;;;4.88;4.10;;;7.70;99.90;;;;;;5003945;28;20116;-73
2021/05/24 04:25:10;;;;;;;6.95;4.18;;;7.90;99.90;;;;;;5013717;28;20052;-73
2021/05/24 04:27:37;;;;;;;4.63;4.22;;;8.00;99.90;;;;;;5024184;28;20084;-73
2021/05/24 04:30:06;;;;;;;5.35;4.13;;;8.20;99.90;;;;;;5040447;28;20060;-73
2021/05/24 04:32:33;;;;;;;5.40;3.95;;;8.30;99.90;;;;;;5040070;28;20103;-73
2021/05/24 04:35:00;;;;;;;4.80;4.47;;;8.50;99.90;;;;;;5022600;28;20118;-73
2021/05/24 04:37:27;;;;;;;4.70;4.30;;;8.60;99.90;;;;;;5022327;28;20099;-73
2021/05/24 04:39:54;;;;;;;4.93;4.47;;;8.80;99.90;;;;;;5040568;28;20053;-73
2021/05/24 04:42:22;;;;;;;6.68;5.00;;;8.90;99.90;;;;;;5023404;28;20048;-73
2021/05/24 04:44:49;;;;;;;5.53;5.00;;;9.10;99.90;;;;;;5041961;28;20041;-73
2021/05/24 04:47:17;;;;;;;9.13;5.47;;;9.30;99.90;;;;;;5041104;28;20045;-73
2021/05/24 04:49:49;;;;;;;6.93;5.88;;;9.40;99.90;;;;;;5007819;28;20051;-73
2021/05/24 04:52:18;;;;;;;6.28;5.75;;;9.70;99.90;;;;;;5014889;28;20052;-73
2021/05/24 04:54:45;;;;;;;6.88;6.22;;;9.90;99.90;;;;;;5022135;28;20111;-73
2021/05/24 04:57:13;;;;;;;7.32;6.38;;;10.00;99.90;;;;;;5028160;28;20055;-73
2021/05/24 04:59:39;;;;;;;6.30;5.88;;;10.10;99.90;;;;;;5023226;28;20150;-73
2021/05/24 05:02:07;;;;;;;8.35;6.07;;;10.20;99.90;;;;;;5007613;28;20045;-73
2021/05/24 05:04:33;;;;;;;6.22;5.78;;;10.20;99.90;;;;;;5006701;28;20099;-73
2021/05/24 05:07:00;;;;;;;7.13;5.88;;;10.30;99.90;;;;;;5003562;28;20052;-73
2021/05/24 05:09:27;;;;;;;6.32;5.82;;;10.30;99.90;;;;;;5031570;28;20496;-73
2021/05/24 05:11:55;;;;;;;6.45;6.00;;;10.30;99.90;;;;;;5022064;28;20064;-73
2021/05/24 05:14:25;;;;;;;7.80;6.22;;;10.40;99.90;;;;;;5039396;28;20052;-73
2021/05/24 05:16:52;;;;;;;6.75;6.35;;;10.50;99.90;;;;;;5022985;28;20103;-73
2021/05/24 05:19:20;;;;;;;8.10;6.65;;;10.60;99.90;;;;;;5040286;28;20088;-74
2021/05/24 05:21:48;;;;;;;7.18;6.57;;;10.80;99.90;;;;;;5022791;28;20041;-73
2021/05/24 05:24:16;;;;;;;7.38;6.97;;;10.80;99.90;;;;;;5017253;28;20045;-73
2021/05/24 05:26:43;;;;;;;7.63;7.10;;;10.80;99.90;;;;;;5019990;28;20413;-73
2021/05/24 05:29:10;;;;;;;7.25;6.63;;;10.70;99.90;;;;;;5021147;28;20588;-74
2021/05/24 05:31:37;;;;;;;8.02;7.43;;;10.80;99.90;;;;;;5021307;28;20096;-73
2021/05/24 05:34:04;;;;;;;7.32;6.93;;;10.90;99.90;;;;;;5038458;28;20112;-74
2021/05/24 05:36:32;;;;;;;8.13;7.43;;;11.00;99.90;;;;;;5041100;28;20053;-73
2021/05/24 05:38:59;;;;;;;7.90;7.35;;;11.10;99.90;;;;;;5006374;28;20753;-74
2021/05/24 05:41:25;;;;;;;7.95;7.20;;;11.20;99.90;;;;;;5005895;28;20060;-73
2021/05/24 05:43:52;;;;;;;7.97;7.22;;;11.30;99.90;;;;;;4994531;28;20093;-75
2021/05/24 05:46:19;;;;;;;7.57;7.03;;;11.40;99.90;;;;;;5038545;28;20045;-73
2021/05/24 05:48:45;;;;;;;7.90;7.40;;;11.50;99.90;;;;;;5022034;28;20118;-73
2021/05/24 05:51:12;;;;;;;8.00;7.53;;;11.60;99.90;;;;;;5036188;28;20833;-74
2021/05/24 05:53:39;;;;;;;8.40;7.72;;;11.70;99.90;;;;;;5032727;28;20061;-73
2021/05/24 05:56:06;;;;;;;10.00;8.20;;;11.90;99.90;;;;;;5002506;28;20099;-73
2021/05/24 05:58:32;;;;;;;8.52;7.95;;;12.10;99.90;;;;;;5002690;28;20045;-73
2021/05/24 06:01:03;;;;;;;8.18;7.72;;;12.30;99.90;;;;;;5016580;28;20472;-73
2021/05/24 06:03:31;;;;;;;8.77;8.30;;;12.40;99.90;;;;;;5037498;28;20575;-74
2021/05/24 06:05:58;;;;;;;8.48;7.85;;;12.50;99.90;;;;;;5022568;28;20066;-74
2021/05/24 06:08:24;;;;;;;8.00;7.45;;;12.70;99.90;;;;;;5040945;28;20060;-73
2021/05/24 06:10:52;;;;;;;9.15;8.40;;;12.80;99.90;;;;;;5040568;28;20045;-73
2021/05/24 06:13:19;;;;;;;7.93;7.63;;;13.00;99.90;;;;;;5006904;28;20053;-73
2021/05/24 06:15:45;;;;;;;8.23;7.60;;;13.00;99.90;;;;;;5018130;28;20080;-73
2021/05/24 06:18:12;;;;;;;8.35;7.82;;;13.10;99.90;;;;;;5040289;28;20052;-73
2021/05/24 06:20:39;;;;;;;8.43;8.02;;;13.20;99.90;;;;;;5040387;28;20128;-73
2021/05/24 06:23:05;;;;;;;8.10;7.60;;;13.20;99.90;;;;;;5003643;28;20049;-74
2021/05/24 06:25:37;;;;;;;8.43;7.82;;;13.30;99.90;;;;;;5035844;28;20106;-73
2021/05/24 06:28:04;;;;;;;8.75;8.18;;;13.40;99.90;;;;;;5037989;28;20165;-73
2021/05/24 06:30:31;;;;;;;8.10;7.70;;;13.60;99.90;;;;;;5038832;28;20111;-73
2021/05/24 06:32:57;;;;;;;8.48;7.88;;;13.70;99.90;;;;;;5021249;28;20512;-74
2021/05/24 06:35:24;;;;;;;9.02;8.48;;;13.90;99.90;;;;;;5039144;28;20052;-73
2021/05/24 06:37:51;;;;;;;9.32;8.93;;;13.80;99.90;;;;;;5022161;28;20058;-74
2021/05/24 06:40:18;;;;;;;9.07;8.50;;;13.90;99.90;;;;;;5019411;28;20417;-73
2021/05/24 06:42:46;;;;;;;9.25;8.75;;;14.00;99.90;;;;;;5002830;28;20350;-73
2021/05/24 06:45:15;;;;;;;9.98;9.10;;;14.10;99.90;;;;;;4995818;28;20130;-74
2021/05/24 06:47:43;;;;;;;8.93;8.45;;;14.40;99.90;;;;;;5018758;28;20037;-74
2021/05/24 06:50:10;;;;;;;9.02;8.50;;;14.60;99.90;;;;;;5038760;28;20064;-73
2021/05/24 06:52:37;;;;;;;8.75;8.35;;;14.40;99.90;;;;;;5039976;28;20057;-73
2021/05/24 06:55:04;;;;;;;8.75;8.35;;;14.40;99.90;;;;;;5021703;28;20056;-74
2021/05/24 06:57:31;;;;;;;9.15;8.55;;;14.60;99.90;;;;;;5036976;28;20095;-74
2021/05/24 06:59:59;;;;;;;9.95;9.23;;;14.80;99.90;;;;;;5037729;28;20045;-73
2021/05/24 07:02:25;;;;;;;10.18;9.60;;;14.80;99.90;;;;;;5038777;28;20060;-73
2021/05/24 07:04:55;;;;;;;8.95;8.55;;;15.00;99.90;;;;;;5017569;28;20562;-74
2021/05/24 07:07:22;;;;;;;9.50;8.80;;;15.10;99.90;;;;;;5017175;28;20064;-74
2021/05/24 07:09:49;;;;;;;8.55;8.25;;;15.20;99.90;;;;;;5039339;28;20118;-74
2021/05/24 07:12:15;;;;;;;9.40;8.80;;;15.40;99.90;;;;;;5021282;28;20102;-73
2021/05/24 07:14:45;;;;;;;8.98;8.57;;;15.50;99.90;;;;;;5038237;28;20084;-74
2021/05/24 07:17:12;;;;;;;8.77;8.48;;;15.40;99.90;;;;;;5036671;28;20130;-73
2021/05/24 07:19:39;;;;;;;9.27;8.48;;;15.10;99.90;;;;;;5021437;28;20111;-74
2021/05/24 07:22:06;;;;;;;9.45;9.05;;;15.30;99.90;;;;;;5003455;28;20057;-74
2021/05/24 07:24:33;;;;;;;9.85;9.35;;;15.40;99.90;;;;;;5023089;28;20398;-73
2021/05/24 07:27:00;;;;;;;10.02;9.43;;;15.40;99.90;;;;;;5020357;28;20045;-73
2021/05/24 07:29:27;;;;;;;10.05;9.38;;;15.60;99.90;;;;;;5019372;28;20045;-74
2021/05/24 07:31:54;;;;;;;9.55;9.10;;;15.90;99.90;;;;;;5025048;28;20049;-73
2021/05/24 07:34:21;;;;;;;9.80;9.15;;;15.70;99.90;;;;;;5043879;28;20489;-73
2021/05/24 07:36:48;;;;;;;9.52;8.80;;;15.70;99.90;;;;;;5041044;28;20038;-74
2021/05/24 07:39:14;;;;;;;9.30;8.70;;;15.80;99.90;;;;;;5043779;28;20098;-74
2021/05/24 07:41:41;;;;;;;9.32;8.73;;;16.00;99.90;;;;;;5043160;28;20037;-73
2021/05/24 07:44:08;;;;;;;9.07;8.32;;;16.30;99.90;;;;;;5043936;28;20059;-74
2021/05/24 07:46:39;;;;;;;9.68;9.07;;;16.40;99.90;;;;;;5023341;28;20050;-73
2021/05/24 07:49:06;;;;;;;9.60;9.00;;;16.60;99.90;;;;;;5042490;28;20194;-73
2021/05/24 07:51:32;;;;;;;9.00;8.57;;;16.40;99.90;;;;;;5044837;28;20048;-73
2021/05/24 07:53:59;;;;;;;8.93;8.40;;;16.50;99.90;;;;;;5045109;28;20053;-74
2021/05/24 07:56:26;;;;;;;9.50;8.75;;;16.70;99.90;;;;;;5024373;28;20135;-74
2021/05/24 07:58:52;;;;;;;8.90;8.55;;;16.90;99.90;;;;;;5032745;28;20049;-74
2021/05/24 08:01:19;;;;;;;9.57;8.98;;;17.00;99.90;;;;;;5044124;28;20052;-73
2021/05/24 08:03:46;;;;;;;9.90;9.43;;;17.10;99.90;;;;;;5023517;28;20049;-74
2021/05/24 08:06:14;;;;;;;10.02;9.43;;;17.20;99.90;;;;;;5024643;28;20619;-73
2021/05/24 08:08:42;;;;;;;10.00;9.60;;;17.20;99.90;;;;;;5001577;28;20473;-74
2021/05/24 08:11:12;;;;;;;9.75;9.35;;;17.20;99.90;;;;;;5041886;28;20060;-74
2021/05/24 08:13:38;;;;;;;9.35;8.90;;;17.10;99.90;;;;;;5042371;28;20128;-73
2021/05/24 08:16:05;;;;;;;8.20;7.90;;;17.10;99.90;;;;;;5042101;28;20358;-73
2021/05/24 08:18:32;;;;;;;8.95;8.50;;;17.20;99.90;;;;;;5036638;28;20049;-73
2021/05/24 08:20:59;;;;;;;9.60;8.90;;;17.20;99.90;;;;;;5022618;28;20064;-74
2021/05/24 08:23:39;;;;;;;9.32;8.73;;;17.20;99.90;;;;;;5024706;28;20054;-74
2021/05/24 08:26:06;;;;;;;9.40;8.90;;;17.40;99.90;;;;;;5022905;28;20498;-75
2021/05/24 08:28:33;;;;;;;9.05;8.63;;;17.60;99.90;;;;;;5029599;28;20048;-74
2021/05/24 08:31:00;;;;;;;9.07;8.68;;;17.60;99.90;;;;;;5009635;28;20044;-74
2021/05/24 08:33:30;;;;;;;9.52;9.00;;;17.50;99.90;;;;;;5037042;28;20068;-74
2021/05/24 08:35:57;;;;;;;9.10;8.70;;;17.50;99.90;;;;;;5044785;28;20068;-74
2021/05/24 08:39:15;;;;;;;9.40;8.80;;;17.80;99.90;;;;;;5028475;28;20103;-74
2021/05/24 08:41:42;;;;;;;9.70;9.20;;;18.10;99.90;;;;;;5023430;28;20049;-75
2021/05/24 08:44:10;;;;;;;9.85;9.45;;;18.30;99.90;;;;;;5043099;28;20049;-75
2021/05/24 08:46:39;;;;;;;9.68;9.18;;;18.40;99.90;;;;;;5042784;28;20049;-74
2021/05/24 08:49:06;;;;;;;9.85;9.35;;;18.80;99.90;;;;;;5040572;28;20049;-75
2021/05/24 08:51:33;;;;;;;10.85;10.35;;;18.90;99.90;;;;;;5026236;28;20048;-74
2021/05/24 08:54:01;;;;;;;10.30;9.63;;;18.30;99.90;;;;;;5009406;28;20064;-74
2021/05/24 08:56:27;;;;;;;9.80;9.30;;;18.10;99.90;;;;;;5037175;28;20045;-73
2021/05/24 08:58:59;;;;;;;10.02;9.35;;;17.90;99.90;;;;;;5025370;28;20056;-74
2021/05/24 09:01:26;;;;;;;9.85;9.45;;;17.60;99.90;;;;;;5039556;28;20212;-73
2021/05/24 09:04:04;;;;;;;12.15;11.20;;;17.30;99.90;;;;;;5025549;28;20065;-73
2021/05/24 09:06:39;;;;;;;9.82;9.23;;;17.50;99.90;;;;;;5009644;28;20053;-74
2021/05/24 09:09:11;;;;;;;10.60;9.93;;;17.90;99.90;;;;;;5043909;28;20064;-74
2021/05/24 09:11:39;;;;;;;9.50;8.95;;;18.10;99.90;;;;;;5024950;28;20405;-74
2021/05/24 09:14:16;;;;;;;10.88;10.27;;;17.90;99.90;;;;;;4990706;28;20081;-74
2021/05/24 09:16:43;;;;;;;10.80;10.02;;;17.80;99.90;;;;;;5042292;28;20045;-74
2021/05/24 09:19:22;;;;;;;10.95;10.43;;;17.80;99.90;;;;;;5025497;28;20041;-74
2021/05/24 09:22:00;;;;;;;11.18;10.68;;;18.10;99.90;;;;;;5020337;28;20044;-73
2021/05/24 09:24:30;;;;;;;11.48;10.98;;;18.30;99.90;;;;;;5041105;28;20071;-74
2021/05/24 09:26:59;;;;;;;10.40;10.00;;;18.50;99.90;;;;;;5039363;28;20052;-74
2021/05/24 09:29:46;;;;;;;10.90;10.30;;;18.30;99.90;;;;;;5317542;22;21011;31
2021/05/24 09:33:09;;;;;;;11.45;10.80;;;18.30;99.90;;;;;;4966401;28;19929;-77
2021/05/24 09:35:36;;;;;;;10.77;10.27;;;18.70;99.90;;;;;;4952359;28;20304;-76
2021/05/24 09:38:10;;;;;;;9.98;9.48;;;18.70;98.20;;;;;;4962986;28;20050;-76
2021/05/24 09:40:40;;;;;;;9.20;8.85;;;18.70;98.70;;;;;;4972087;28;20042;-78
2021/05/24 09:43:10;;;;;;;8.90;8.50;;;18.80;97.80;;;;;;4961619;28;20450;-75
2021/05/24 09:45:40;;;;;;;9.80;9.40;;;19.00;98.80;;;;;;4990234;28;20045;-76
2021/05/24 09:48:07;;;;;;;8.77;8.35;;;18.60;96.50;;;;;;4994221;28;20072;-75
2021/05/24 09:50:36;;;;;;;10.30;9.80;;;18.50;97.40;;;;;;4989326;28;20113;-78
2021/05/24 09:53:04;;;;;;;11.00;10.20;;;18.20;98.50;;;;;;4973444;28;20100;-77
2021/05/24 09:55:32;;;;;;;10.68;10.05;;;18.10;98.60;;;;;;4972489;28;20057;-79
2021/05/24 09:58:11;;;;;;;9.95;9.15;;;18.20;98.50;;;;;;4973424;28;20116;-77
2021/05/24 10:00:47;;;;;;;10.55;10.05;;;18.50;99.20;;;;;;4972959;28;20137;-78
2021/05/24 10:03:30;;;;;;;10.13;9.60;;;18.40;98.70;;;;;;4975228;28;20061;-78
2021/05/24 10:06:11;;;;;;;9.38;8.82;;;18.50;98.20;;;;;;4953918;28;20051;-78
2021/05/24 10:08:43;;;;;;;8.52;8.02;;;18.50;97.90;;;;;;4976391;28;20069;-76
2021/05/24 10:11:10;;;;;;;10.57;9.85;;;18.30;98.30;;;;;;4960748;28;20104;-77
2021/05/24 10:13:38;;;;;;;10.52;10.02;;;18.10;98.60;;;;;;4986136;28;20048;-79
2021/05/24 10:16:10;;;;;;;9.45;9.02;;;18.10;98.50;;;;;;4968952;28;20145;-78
2021/05/24 10:18:37;;;;;;;10.77;10.20;;;18.30;98.50;;;;;;4986260;28;20046;-77
2021/05/24 10:21:04;;;;;;;8.93;8.50;;;18.10;98.70;;;;;;4971558;28;20414;-77
2021/05/24 10:23:32;;;;;;;10.52;9.93;;;18.00;96.80;;;;;;5005622;28;20048;-77
2021/05/24 10:26:01;;;;;;;10.50;10.00;;;18.10;97.20;;;;;;4987889;28;20090;-77
2021/05/24 10:28:30;;;;;;;10.70;10.10;;;18.40;97.70;;;;;;4966136;28;20593;-78
2021/05/24 10:31:15;;;;;;;9.73;9.32;;;18.40;95.60;;;;;;4989541;28;20053;-78
2021/05/24 10:33:49;;;;;;;9.15;8.55;;;18.80;96.20;;;;;;4978597;28;20049;-77
2021/05/24 10:36:25;;;;;;;10.15;9.65;;;19.10;96.50;;;;;;4974383;28;20045;-78
2021/05/24 10:39:19;;;;;;;11.05;10.55;;;19.10;95.70;;;;;;4993574;28;20062;-78
2021/05/24 10:41:59;;;;;;;11.38;10.68;;;19.10;94.20;;;;;;4961180;28;20080;-78
2021/05/24 10:44:43;;;;;;;11.30;10.68;;;19.30;95.90;;;;;;4972065;28;20064;-78
2021/05/24 10:51:56;;;;;;;11.20;10.80;;;19.00;92.30;;;;;;4975876;28;20450;-78
2021/05/24 10:54:46;;;;;;;;;;;;;;;;;;;;;
2021/05/24 10:57:19;;;;;;;11.35;10.65;;;20.00;95.40;;;;;;4942243;28;20072;-78
2021/05/24 10:59:49;;;;;;;10.48;10.07;;;19.70;91.30;;;;;;4983955;28;20057;-77
2021/05/24 11:02:26;;;;;;;10.45;9.95;;;19.40;90.90;;;;;;4955214;28;20141;-77
2021/05/24 11:04:57;;;;;;;10.45;10.02;;;19.20;91.00;;;;;;5011777;28;20061;-78
2021/05/24 11:07:44;;;;;;;10.55;9.93;;;19.30;92.40;;;;;;4970499;28;20042;-78
2021/05/24 11:14:10;;;;;;;11.27;10.55;;;19.50;91.20;;;;;;4985542;28;20042;-77
2021/05/24 11:16:58;;;;;;;10.43;10.02;;;19.60;91.50;;;;;;4977646;28;20125;-76
2021/05/24 11:19:28;;;;;;;11.00;10.50;;;19.90;90.30;;;;;;4998485;28;20049;-78
2021/05/24 11:22:41;;;;;;;10.15;9.65;;;19.70;88.80;;;;;;4972365;28;20052;-77
2021/05/24 11:28:52;;;;;;;10.27;9.85;;;19.70;85.80;;;;;;4981576;28;20081;-78
2021/05/24 11:31:56;;;;;;;10.98;10.48;;;19.60;87.60;;;;;;4970169;28;20042;-78
2021/05/24 11:34:32;;;;;;;11.00;10.50;;;19.80;88.70;;;;;;4970061;28;20046;-76
2021/05/24 11:37:07;;;;;;;11.63;11.07;;;20.00;84.70;;;;;;4965465;28;20128;-77
2021/05/24 11:39:47;;;;;;;11.60;11.00;;;20.10;87.60;;;;;;4961144;28;20053;-78
2021/05/24 11:42:32;;;;;;;11.55;10.93;;;20.20;87.30;;;;;;4982980;28;20128;-76
2021/05/24 11:45:05;;;;;;;11.50;10.90;;;20.10;87.90;;;;;;4947043;28;20121;-80
2021/05/24 11:47:35;;;;;;;10.80;10.40;;;20.30;85.30;;;;;;4978031;28;20046;-79
2021/05/24 11:50:09;;;;;;;11.60;11.00;;;20.40;83.60;;;;;;4969110;28;20806;-77
2021/05/24 11:52:38;;;;;;;9.90;9.40;;;20.30;82.50;;;;;;4991170;28;20128;-77
2021/05/24 11:55:15;;;;;;;11.48;10.73;;;20.50;83.30;;;;;;4954478;28;20050;-78
2021/05/24 11:57:44;;;;;;;10.93;10.40;;;20.20;85.80;;;;;;4977522;28;20052;-78
2021/05/24 12:00:20;;;;;;;10.80;10.30;;;20.10;83.00;;;;;;4955791;28;20114;-75
2021/05/24 12:02:50;;;;;;;10.98;10.48;;;20.20;83.10;;;;;;4970383;28;20050;-76
2021/05/24 12:05:19;;;;;;;9.43;9.02;;;20.20;82.20;;;;;;4957986;28;20045;-77
2021/05/24 12:07:47;;;;;;;11.07;10.43;;;19.70;83.00;;;;;;4979983;28;20064;-78
2021/05/24 12:10:15;;;;;;;9.40;9.00;;;19.40;84.60;;;;;;4981394;28;20077;-78
2021/05/24 12:12:46;;;;;;;10.40;10.00;;;19.30;85.80;;;;;;4976759;28;20050;-77
2021/05/24 12:15:16;;;;;;;8.70;8.30;;;19.40;86.50;;;;;;4962792;28;20736;-78
2021/05/24 12:17:49;;;;;;;8.10;7.80;;;19.50;86.40;;;;;;4977928;28;20053;-77
2021/05/24 12:20:17;;;;;;;8.73;8.27;;;19.40;86.80;;;;;;4973866;28;20189;-77
2021/05/24 12:22:52;;;;;;;8.48;8.07;;;19.20;85.30;;;;;;4979450;28;20352;-78
2021/05/24 12:25:24;;;;;;;9.73;9.07;;;19.30;88.10;;;;;;4975388;28;20077;-77
2021/05/24 12:27:52;;;;;;;9.30;8.93;;;19.30;87.90;;;;;;4977762;28;20053;-77
2021/05/24 12:30:31;;;;;;;9.73;9.35;;;19.60;87.60;;;;;;5013222;28;20070;-78
2021/05/24 12:33:11;;;;;;;9.27;8.80;;;19.50;87.40;;;;;;4980789;28;20072;-76
2021/05/24 12:35:59;;;;;;;9.73;9.07;;;19.50;88.00;;;;;;5002807;28;20060;-78
2021/05/24 12:38:45;;;;;;;10.65;9.65;;;19.30;89.00;;;;;;4986695;28;20041;-77
2021/05/24 12:41:14;;;;;;;9.00;8.60;;;19.30;88.70;;;;;;4976500;28;20130;-78
2021/05/24 12:43:54;;;;;;;8.40;8.00;;;19.40;88.40;;;;;;4969267;28;20056;-78
2021/05/24 12:46:25;;;;;;;8.95;8.55;;;19.20;88.40;;;;;;4978472;28;20042;-76
2021/05/24 12:48:52;;;;;;;9.80;9.20;;;18.80;88.90;;;;;;5013424;28;20060;-77
2021/05/24 12:51:29;;;;;;;8.57;8.27;;;19.00;90.60;;;;;;4984402;28;20145;-78
2021/05/24 12:54:02;;;;;;;9.10;8.60;;;19.00;90.10;;;;;;4958259;28;20157;-77
2021/05/24 12:56:41;;;;;;;8.23;7.82;;;18.90;90.20;;;;;;4973487;28;20672;-77
2021/05/24 12:59:22;;;;;;;8.23;7.85;;;18.70;90.60;;;;;;4969941;28;20111;-77
2021/05/24 13:01:57;;;;;;;7.78;7.22;;;18.70;90.50;;;;;;4978234;28;20127;-78
2021/05/24 13:04:26;;;;;;;8.60;8.25;;;18.70;90.60;;;;;;4980582;28;20041;-77
2021/05/24 13:06:57;;;;;;;9.00;8.60;;;18.70;89.50;;;;;;4993328;28;20050;-78
2021/05/24 13:09:31;;;;;;;;;;;18.60;90.00;;;;;;4979672;28;20077;-78
2021/05/24 13:12:16;;;;;;;9.38;8.88;;;18.70;90.30;;;;;;4967238;28;19932;-77
2021/05/24 13:14:55;;;;;;;9.10;8.70;;;18.70;90.80;;;;;;4968026;28;20045;-77